sensor_id;sensor_type;location;lat;lon;timestamp;P1;durP1;ratioP1;P2;durP2;ratioP2
22705;SDS011;11520;51.198;4.468;2023-03-14T00:07:16;5.18;;;1.05;;
22705;SDS011;11520;51.198;4.468;2023-03-14T00:13:14;7.95;;;1.40;;
22705;SDS011;11520;51.198;4.468;2023-03-14T00:25:41;4.00;;;0.85;;
22705;SDS011;11520;51.198;4.468;2023-03-14T00:37:51;3.58;;;1.02;;
22705;SDS011;11520;51.198;4.468;2023-03-14T00:56:30;6.10;;;1.55;;
22705;SDS011;11520;51.198;4.468;2023-03-14T01:02:56;5.72;;;1.27;;
22705;SDS011;11520;51.198;4.468;2023-03-14T01:24:20;7.88;;;1.60;;
22705;SDS011;11520;51.198;4.468;2023-03-14T01:33:12;6.15;;;1.60;;
22705;SDS011;11520;51.198;4.468;2023-03-14T01:35:52;9.80;;;1.45;;
22705;SDS011;11520;51.198;4.468;2023-03-14T01:44:58;9.23;;;1.80;;
22705;SDS011;11520;51.198;4.468;2023-03-14T01:47:44;11.55;;;1.92;;
22705;SDS011;11520;51.198;4.468;2023-03-14T01:53:50;12.82;;;1.80;;
22705;SDS011;11520;51.198;4.468;2023-03-14T02:06:15;4.60;;;1.40;;
22705;SDS011;11520;51.198;4.468;2023-03-14T02:15:11;8.93;;;1.90;;
22705;SDS011;11520;51.198;4.468;2023-03-14T02:29:39;7.20;;;1.25;;
22705;SDS011;11520;51.198;4.468;2023-03-14T02:41:14;7.30;;;2.17;;
22705;SDS011;11520;51.198;4.468;2023-03-14T02:47:03;5.13;;;1.10;;
22705;SDS011;11520;51.198;4.468;2023-03-14T02:49:33;4.93;;;1.13;;
22705;SDS011;11520;51.198;4.468;2023-03-14T03:03:52;5.28;;;0.98;;
22705;SDS011;11520;51.198;4.468;2023-03-14T03:09:53;8.07;;;1.13;;
22705;SDS011;11520;51.198;4.468;2023-03-14T03:12:24;5.15;;;1.05;;
22705;SDS011;11520;51.198;4.468;2023-03-14T03:37:13;5.93;;;1.23;;
22705;SDS011;11520;51.198;4.468;2023-03-14T03:39:45;6.72;;;1.13;;
22705;SDS011;11520;51.198;4.468;2023-03-14T03:45:33;8.38;;;1.88;;
22705;SDS011;11520;51.198;4.468;2023-03-14T03:48:04;5.68;;;1.58;;
22705;SDS011;11520;51.198;4.468;2023-03-14T03:50:44;5.88;;;1.50;;
22705;SDS011;11520;51.198;4.468;2023-03-14T03:53:14;10.73;;;1.95;;
22705;SDS011;11520;51.198;4.468;2023-03-14T03:58:22;5.72;;;1.20;;
22705;SDS011;11520;51.198;4.468;2023-03-14T04:00:51;7.65;;;1.25;;
22705;SDS011;11520;51.198;4.468;2023-03-14T04:03:18;3.65;;;1.10;;
22705;SDS011;11520;51.198;4.468;2023-03-14T04:09:08;5.32;;;1.20;;
22705;SDS011;11520;51.198;4.468;2023-03-14T04:14:38;4.25;;;1.50;;
22705;SDS011;11520;51.198;4.468;2023-03-14T04:26:12;8.77;;;2.00;;
22705;SDS011;11520;51.198;4.468;2023-03-14T04:33:36;4.55;;;1.60;;
22705;SDS011;11520;51.198;4.468;2023-03-14T04:36:06;5.25;;;1.85;;
22705;SDS011;11520;51.198;4.468;2023-03-14T04:38:36;6.97;;;1.88;;
22705;SDS011;11520;51.198;4.468;2023-03-14T04:41:04;10.15;;;2.40;;
22705;SDS011;11520;51.198;4.468;2023-03-14T04:43:30;8.00;;;2.33;;
22705;SDS011;11520;51.198;4.468;2023-03-14T04:45:59;7.70;;;2.90;;
22705;SDS011;11520;51.198;4.468;2023-03-14T04:48:25;7.38;;;2.00;;
22705;SDS011;11520;51.198;4.468;2023-03-14T04:50:52;9.35;;;2.75;;
22705;SDS011;11520;51.198;4.468;2023-03-14T04:53:19;7.93;;;2.35;;
22705;SDS011;11520;51.198;4.468;2023-03-14T04:55:49;6.13;;;2.38;;
22705;SDS011;11520;51.198;4.468;2023-03-14T05:01:39;6.78;;;2.30;;
22705;SDS011;11520;51.198;4.468;2023-03-14T05:04:07;8.18;;;2.35;;
22705;SDS011;11520;51.198;4.468;2023-03-14T05:06:32;6.57;;;2.38;;
22705;SDS011;11520;51.198;4.468;2023-03-14T05:08:59;10.30;;;2.80;;
22705;SDS011;11520;51.198;4.468;2023-03-14T05:11:28;5.25;;;2.00;;
22705;SDS011;11520;51.198;4.468;2023-03-14T05:13:54;10.25;;;2.35;;
22705;SDS011;11520;51.198;4.468;2023-03-14T05:16:20;7.18;;;2.67;;
22705;SDS011;11520;51.198;4.468;2023-03-14T05:18:45;5.32;;;2.42;;
22705;SDS011;11520;51.198;4.468;2023-03-14T05:21:13;7.43;;;2.33;;
22705;SDS011;11520;51.198;4.468;2023-03-14T05:30:27;6.47;;;2.72;;
22705;SDS011;11520;51.198;4.468;2023-03-14T05:42:01;15.13;;;2.35;;
22705;SDS011;11520;51.198;4.468;2023-03-14T05:47:50;5.90;;;1.88;;
22705;SDS011;11520;51.198;4.468;2023-03-14T05:50:16;6.97;;;2.33;;
22705;SDS011;11520;51.198;4.468;2023-03-14T05:52:50;6.00;;;2.65;;
22705;SDS011;11520;51.198;4.468;2023-03-14T05:55:19;5.10;;;2.30;;
22705;SDS011;11520;51.198;4.468;2023-03-14T05:57:50;8.40;;;2.70;;
22705;SDS011;11520;51.198;4.468;2023-03-14T06:00:18;7.15;;;2.47;;
22705;SDS011;11520;51.198;4.468;2023-03-14T06:02:44;5.20;;;2.38;;
22705;SDS011;11520;51.198;4.468;2023-03-14T06:05:10;7.18;;;2.72;;
22705;SDS011;11520;51.198;4.468;2023-03-14T06:07:36;6.88;;;2.78;;
22705;SDS011;11520;51.198;4.468;2023-03-14T06:10:03;6.65;;;2.88;;
22705;SDS011;11520;51.198;4.468;2023-03-14T06:15:17;6.47;;;3.13;;
22705;SDS011;11520;51.198;4.468;2023-03-14T06:17:43;9.82;;;3.28;;
22705;SDS011;11520;51.198;4.468;2023-03-14T06:20:12;8.18;;;3.50;;
22705;SDS011;11520;51.198;4.468;2023-03-14T06:22:38;5.45;;;3.22;;
22705;SDS011;11520;51.198;4.468;2023-03-14T06:25:05;5.45;;;3.30;;
22705;SDS011;11520;51.198;4.468;2023-03-14T06:27:33;6.63;;;3.45;;
22705;SDS011;11520;51.198;4.468;2023-03-14T06:32:44;6.07;;;2.88;;
22705;SDS011;11520;51.198;4.468;2023-03-14T06:35:09;5.82;;;2.20;;
22705;SDS011;11520;51.198;4.468;2023-03-14T06:37:37;3.70;;;1.30;;
22705;SDS011;11520;51.198;4.468;2023-03-14T06:40:03;2.85;;;0.95;;
22705;SDS011;11520;51.198;4.468;2023-03-14T06:42:33;3.30;;;0.98;;
22705;SDS011;11520;51.198;4.468;2023-03-14T06:45:00;5.30;;;1.48;;
22705;SDS011;11520;51.198;4.468;2023-03-14T06:47:26;4.43;;;0.90;;
22705;SDS011;11520;51.198;4.468;2023-03-14T06:49:54;5.13;;;1.23;;
22705;SDS011;11520;51.198;4.468;2023-03-14T06:52:20;5.70;;;1.08;;
22705;SDS011;11520;51.198;4.468;2023-03-14T06:54:46;4.40;;;1.13;;
22705;SDS011;11520;51.198;4.468;2023-03-14T06:57:11;7.55;;;1.35;;
22705;SDS011;11520;51.198;4.468;2023-03-14T06:59:37;2.38;;;1.10;;
22705;SDS011;11520;51.198;4.468;2023-03-14T07:02:02;3.38;;;1.23;;
22705;SDS011;11520;51.198;4.468;2023-03-14T07:04:28;3.60;;;1.15;;
22705;SDS011;11520;51.198;4.468;2023-03-14T07:06:55;1.80;;;1.17;;
22705;SDS011;11520;51.198;4.468;2023-03-14T07:09:21;3.15;;;1.52;;
22705;SDS011;11520;51.198;4.468;2023-03-14T07:11:47;3.75;;;1.30;;
22705;SDS011;11520;51.198;4.468;2023-03-14T07:14:12;1.95;;;1.33;;
22705;SDS011;11520;51.198;4.468;2023-03-14T07:20:00;4.80;;;1.23;;
22705;SDS011;11520;51.198;4.468;2023-03-14T07:22:30;2.20;;;0.88;;
22705;SDS011;11520;51.198;4.468;2023-03-14T07:24:56;1.98;;;1.10;;
22705;SDS011;11520;51.198;4.468;2023-03-14T07:33:30;3.88;;;1.30;;
22705;SDS011;11520;51.198;4.468;2023-03-14T07:35:56;6.80;;;1.25;;
22705;SDS011;11520;51.198;4.468;2023-03-14T07:38:21;5.13;;;1.00;;
22705;SDS011;11520;51.198;4.468;2023-03-14T07:40:47;6.45;;;1.13;;
22705;SDS011;11520;51.198;4.468;2023-03-14T07:43:13;4.05;;;0.93;;
22705;SDS011;11520;51.198;4.468;2023-03-14T07:59:06;3.47;;;0.88;;
22705;SDS011;11520;51.198;4.468;2023-03-14T08:01:33;7.75;;;1.33;;
22705;SDS011;11520;51.198;4.468;2023-03-14T08:03:58;5.28;;;0.77;;
22705;SDS011;11520;51.198;4.468;2023-03-14T08:12:50;7.03;;;1.30;;
22705;SDS011;11520;51.198;4.468;2023-03-14T08:15:20;6.35;;;1.00;;
22705;SDS011;11520;51.198;4.468;2023-03-14T08:17:54;1.48;;;0.70;;
22705;SDS011;11520;51.198;4.468;2023-03-14T08:20:20;5.93;;;1.00;;
22705;SDS011;11520;51.198;4.468;2023-03-14T08:22:47;3.67;;;0.77;;
22705;SDS011;11520;51.198;4.468;2023-03-14T08:25:13;10.90;;;1.35;;
22705;SDS011;11520;51.198;4.468;2023-03-14T08:27:40;6.47;;;0.88;;
22705;SDS011;11520;51.198;4.468;2023-03-14T08:30:08;5.60;;;0.93;;
22705;SDS011;11520;51.198;4.468;2023-03-14T08:32:38;4.93;;;1.00;;
22705;SDS011;11520;51.198;4.468;2023-03-14T08:41:11;4.32;;;0.70;;
22705;SDS011;11520;51.198;4.468;2023-03-14T08:43:37;5.25;;;0.82;;
22705;SDS011;11520;51.198;4.468;2023-03-14T08:49:25;2.53;;;1.10;;
22705;SDS011;11520;51.198;4.468;2023-03-14T08:55:13;6.80;;;0.80;;
22705;SDS011;11520;51.198;4.468;2023-03-14T08:57:39;4.55;;;1.00;;
22705;SDS011;11520;51.198;4.468;2023-03-14T09:03:28;4.10;;;0.55;;
22705;SDS011;11520;51.198;4.468;2023-03-14T09:15:54;2.38;;;0.50;;
22705;SDS011;11520;51.198;4.468;2023-03-14T09:18:21;4.28;;;0.93;;
22705;SDS011;11520;51.198;4.468;2023-03-14T09:24:09;3.42;;;0.50;;
22705;SDS011;11520;51.198;4.468;2023-03-14T09:26:36;2.55;;;0.47;;
22705;SDS011;11520;51.198;4.468;2023-03-14T09:29:02;3.75;;;0.60;;
22705;SDS011;11520;51.198;4.468;2023-03-14T09:34:31;2.85;;;0.40;;
22705;SDS011;11520;51.198;4.468;2023-03-14T09:43:42;4.45;;;0.68;;
22705;SDS011;11520;51.198;4.468;2023-03-14T09:46:10;1.45;;;0.40;;
22705;SDS011;11520;51.198;4.468;2023-03-14T09:48:38;2.28;;;0.47;;
22705;SDS011;11520;51.198;4.468;2023-03-14T09:51:07;1.48;;;0.50;;
22705;SDS011;11520;51.198;4.468;2023-03-14T09:53:42;2.95;;;0.52;;
22705;SDS011;11520;51.198;4.468;2023-03-14T09:56:21;2.72;;;0.60;;
22705;SDS011;11520;51.198;4.468;2023-03-14T09:58:58;4.95;;;0.57;;
22705;SDS011;11520;51.198;4.468;2023-03-14T10:01:32;4.53;;;0.80;;
22705;SDS011;11520;51.198;4.468;2023-03-14T10:04:17;2.75;;;0.80;;
22705;SDS011;11520;51.198;4.468;2023-03-14T10:06:55;7.32;;;1.23;;
22705;SDS011;11520;51.198;4.468;2023-03-14T10:09:39;6.43;;;1.15;;
22705;SDS011;11520;51.198;4.468;2023-03-14T10:12:07;4.78;;;1.27;;
22705;SDS011;11520;51.198;4.468;2023-03-14T10:14:35;4.70;;;1.10;;
22705;SDS011;11520;51.198;4.468;2023-03-14T10:17:20;4.07;;;1.40;;
22705;SDS011;11520;51.198;4.468;2023-03-14T10:19:56;2.13;;;0.98;;
22705;SDS011;11520;51.198;4.468;2023-03-14T10:22:25;2.58;;;0.90;;
22705;SDS011;11520;51.198;4.468;2023-03-14T10:24:55;7.32;;;1.77;;
22705;SDS011;11520;51.198;4.468;2023-03-14T10:27:32;2.50;;;0.65;;
22705;SDS011;11520;51.198;4.468;2023-03-14T10:30:01;4.15;;;0.70;;
22705;SDS011;11520;51.198;4.468;2023-03-14T10:32:36;2.50;;;1.10;;
22705;SDS011;11520;51.198;4.468;2023-03-14T10:45:43;5.35;;;0.77;;
22705;SDS011;11520;51.198;4.468;2023-03-14T10:48:06;7.85;;;1.50;;
22705;SDS011;11520;51.198;4.468;2023-03-14T10:50:56;5.32;;;0.75;;
22705;SDS011;11520;51.198;4.468;2023-03-14T10:53:22;7.57;;;1.77;;
22705;SDS011;11520;51.198;4.468;2023-03-14T10:55:49;7.95;;;1.20;;
22705;SDS011;11520;51.198;4.468;2023-03-14T10:58:20;4.70;;;1.00;;
22705;SDS011;11520;51.198;4.468;2023-03-14T11:01:00;10.65;;;1.60;;
22705;SDS011;11520;51.198;4.468;2023-03-14T11:03:48;7.28;;;1.30;;
22705;SDS011;11520;51.198;4.468;2023-03-14T11:06:24;4.68;;;1.00;;
22705;SDS011;11520;51.198;4.468;2023-03-14T11:11:37;9.73;;;1.10;;
22705;SDS011;11520;51.198;4.468;2023-03-14T11:22:44;7.20;;;1.20;;
22705;SDS011;11520;51.198;4.468;2023-03-14T11:31:31;6.53;;;1.50;;
22705;SDS011;11520;51.198;4.468;2023-03-14T11:39:50;11.15;;;1.50;;
22705;SDS011;11520;51.198;4.468;2023-03-14T11:42:22;8.90;;;1.73;;
22705;SDS011;11520;51.198;4.468;2023-03-14T11:51:39;12.05;;;2.17;;
22705;SDS011;11520;51.198;4.468;2023-03-14T11:56:59;18.73;;;2.60;;
22705;SDS011;11520;51.198;4.468;2023-03-14T12:02:13;9.90;;;2.10;;
22705;SDS011;11520;51.198;4.468;2023-03-14T12:07:21;14.43;;;2.10;;
22705;SDS011;11520;51.198;4.468;2023-03-14T12:09:54;14.38;;;2.53;;
22705;SDS011;11520;51.198;4.468;2023-03-14T12:12:22;13.43;;;2.33;;
22705;SDS011;11520;51.198;4.468;2023-03-14T12:21:22;20.77;;;2.95;;
22705;SDS011;11520;51.198;4.468;2023-03-14T12:24:14;14.02;;;2.70;;
22705;SDS011;11520;51.198;4.468;2023-03-14T12:26:56;28.13;;;3.53;;
22705;SDS011;11520;51.198;4.468;2023-03-14T12:29:23;19.70;;;3.50;;
22705;SDS011;11520;51.198;4.468;2023-03-14T12:34:53;16.77;;;2.72;;
22705;SDS011;11520;51.198;4.468;2023-03-14T12:37:24;21.80;;;3.88;;
22705;SDS011;11520;51.198;4.468;2023-03-14T12:40:15;31.00;;;3.85;;
22705;SDS011;11520;51.198;4.468;2023-03-14T12:43:00;22.10;;;3.15;;
22705;SDS011;11520;51.198;4.468;2023-03-14T12:45:34;23.67;;;3.65;;
22705;SDS011;11520;51.198;4.468;2023-03-14T12:59:05;17.95;;;2.90;;
22705;SDS011;11520;51.198;4.468;2023-03-14T13:01:54;16.70;;;2.97;;
22705;SDS011;11520;51.198;4.468;2023-03-14T13:05:20;19.48;;;2.28;;
22705;SDS011;11520;51.198;4.468;2023-03-14T13:15:47;12.98;;;2.00;;
22705;SDS011;11520;51.198;4.468;2023-03-14T13:18:26;14.63;;;2.25;;
22705;SDS011;11520;51.198;4.468;2023-03-14T13:21:01;13.27;;;2.20;;
22705;SDS011;11520;51.198;4.468;2023-03-14T13:23:31;12.40;;;2.17;;
22705;SDS011;11520;51.198;4.468;2023-03-14T13:26:13;16.10;;;2.78;;
22705;SDS011;11520;51.198;4.468;2023-03-14T13:28:42;13.43;;;1.92;;
22705;SDS011;11520;51.198;4.468;2023-03-14T13:37:54;4.63;;;1.08;;
22705;SDS011;11520;51.198;4.468;2023-03-14T13:43:44;11.00;;;1.70;;
22705;SDS011;11520;51.198;4.468;2023-03-14T13:46:14;8.40;;;1.38;;
22705;SDS011;11520;51.198;4.468;2023-03-14T13:49:09;7.82;;;1.40;;
22705;SDS011;11520;51.198;4.468;2023-03-14T13:51:41;5.15;;;1.40;;
22705;SDS011;11520;51.198;4.468;2023-03-14T13:54:15;7.25;;;1.15;;
22705;SDS011;11520;51.198;4.468;2023-03-14T13:56:44;6.75;;;1.10;;
22705;SDS011;11520;51.198;4.468;2023-03-14T13:59:33;5.38;;;0.73;;
22705;SDS011;11520;51.198;4.468;2023-03-14T14:01:59;11.45;;;1.90;;
22705;SDS011;11520;51.198;4.468;2023-03-14T14:04:28;11.50;;;2.05;;
22705;SDS011;11520;51.198;4.468;2023-03-14T14:06:59;8.98;;;1.58;;
22705;SDS011;11520;51.198;4.468;2023-03-14T14:09:42;9.35;;;1.60;;
22705;SDS011;11520;51.198;4.468;2023-03-14T14:12:16;5.70;;;1.00;;
22705;SDS011;11520;51.198;4.468;2023-03-14T14:17:28;3.58;;;0.70;;
22705;SDS011;11520;51.198;4.468;2023-03-14T14:20:03;7.38;;;0.93;;
22705;SDS011;11520;51.198;4.468;2023-03-14T14:22:31;4.03;;;0.95;;
22705;SDS011;11520;51.198;4.468;2023-03-14T14:24:59;3.50;;;1.20;;
22705;SDS011;11520;51.198;4.468;2023-03-14T14:27:38;9.73;;;1.25;;
22705;SDS011;11520;51.198;4.468;2023-03-14T14:30:24;5.15;;;1.23;;
22705;SDS011;11520;51.198;4.468;2023-03-14T14:36:19;4.93;;;1.00;;
22705;SDS011;11520;51.198;4.468;2023-03-14T14:39:04;5.10;;;0.93;;
22705;SDS011;11520;51.198;4.468;2023-03-14T14:41:49;3.83;;;0.70;;
22705;SDS011;11520;51.198;4.468;2023-03-14T14:44:21;7.22;;;1.48;;
22705;SDS011;11520;51.198;4.468;2023-03-14T14:49:46;6.95;;;0.80;;
22705;SDS011;11520;51.198;4.468;2023-03-14T14:52:15;10.45;;;1.00;;
22705;SDS011;11520;51.198;4.468;2023-03-14T14:54:54;6.85;;;1.35;;
22705;SDS011;11520;51.198;4.468;2023-03-14T14:57:25;8.10;;;1.70;;
22705;SDS011;11520;51.198;4.468;2023-03-14T14:59:56;8.97;;;1.23;;
22705;SDS011;11520;51.198;4.468;2023-03-14T15:02:41;9.00;;;1.27;;
22705;SDS011;11520;51.198;4.468;2023-03-14T15:05:15;7.97;;;1.42;;
22705;SDS011;11520;51.198;4.468;2023-03-14T15:07:43;11.05;;;1.50;;
22705;SDS011;11520;51.198;4.468;2023-03-14T15:10:10;13.52;;;1.48;;
22705;SDS011;11520;51.198;4.468;2023-03-14T15:12:40;10.82;;;1.67;;
22705;SDS011;11520;51.198;4.468;2023-03-14T15:15:06;7.80;;;1.42;;
22705;SDS011;11520;51.198;4.468;2023-03-14T15:17:33;10.07;;;1.80;;
22705;SDS011;11520;51.198;4.468;2023-03-14T15:20:02;5.00;;;1.15;;
22705;SDS011;11520;51.198;4.468;2023-03-14T15:22:31;7.90;;;1.35;;
22705;SDS011;11520;51.198;4.468;2023-03-14T15:24:57;13.20;;;1.65;;
22705;SDS011;11520;51.198;4.468;2023-03-14T15:27:23;9.38;;;1.70;;
22705;SDS011;11520;51.198;4.468;2023-03-14T15:29:50;5.82;;;1.30;;
22705;SDS011;11520;51.198;4.468;2023-03-14T15:32:16;13.52;;;1.73;;
22705;SDS011;11520;51.198;4.468;2023-03-14T15:34:43;8.50;;;1.50;;
22705;SDS011;11520;51.198;4.468;2023-03-14T15:37:12;11.40;;;1.63;;
22705;SDS011;11520;51.198;4.468;2023-03-14T15:39:41;11.10;;;1.83;;
22705;SDS011;11520;51.198;4.468;2023-03-14T15:42:11;5.90;;;1.25;;
22705;SDS011;11520;51.198;4.468;2023-03-14T15:44:41;10.13;;;1.35;;
22705;SDS011;11520;51.198;4.468;2023-03-14T15:47:08;10.10;;;1.60;;
22705;SDS011;11520;51.198;4.468;2023-03-14T15:52:23;17.27;;;2.55;;
22705;SDS011;11520;51.198;4.468;2023-03-14T15:54:49;10.68;;;1.73;;
22705;SDS011;11520;51.198;4.468;2023-03-14T15:57:14;10.15;;;1.90;;
22705;SDS011;11520;51.198;4.468;2023-03-14T15:59:43;9.80;;;2.33;;
22705;SDS011;11520;51.198;4.468;2023-03-14T16:02:09;7.85;;;2.88;;
22705;SDS011;11520;51.198;4.468;2023-03-14T16:04:36;11.13;;;1.73;;
22705;SDS011;11520;51.198;4.468;2023-03-14T16:07:02;12.38;;;1.65;;
22705;SDS011;11520;51.198;4.468;2023-03-14T16:09:30;11.02;;;1.83;;
22705;SDS011;11520;51.198;4.468;2023-03-14T16:14:28;6.25;;;1.88;;
22705;SDS011;11520;51.198;4.468;2023-03-14T16:16:54;10.00;;;2.00;;
22705;SDS011;11520;51.198;4.468;2023-03-14T16:21:58;9.63;;;2.10;;
22705;SDS011;11520;51.198;4.468;2023-03-14T16:24:23;8.32;;;1.77;;
22705;SDS011;11520;51.198;4.468;2023-03-14T16:30:12;9.63;;;2.53;;
22705;SDS011;11520;51.198;4.468;2023-03-14T16:32:38;12.05;;;2.17;;
22705;SDS011;11520;51.198;4.468;2023-03-14T16:35:06;13.18;;;2.10;;
22705;SDS011;11520;51.198;4.468;2023-03-14T16:37:32;13.63;;;2.50;;
22705;SDS011;11520;51.198;4.468;2023-03-14T16:40:01;16.67;;;2.47;;
22705;SDS011;11520;51.198;4.468;2023-03-14T16:42:26;14.93;;;2.70;;
22705;SDS011;11520;51.198;4.468;2023-03-14T16:44:53;10.48;;;2.92;;
22705;SDS011;11520;51.198;4.468;2023-03-14T16:47:19;18.80;;;3.55;;
22705;SDS011;11520;51.198;4.468;2023-03-14T16:49:44;9.95;;;2.10;;
22705;SDS011;11520;51.198;4.468;2023-03-14T16:52:10;13.30;;;2.25;;
22705;SDS011;11520;51.198;4.468;2023-03-14T16:54:36;10.65;;;2.85;;
22705;SDS011;11520;51.198;4.468;2023-03-14T16:57:04;12.13;;;2.38;;
22705;SDS011;11520;51.198;4.468;2023-03-14T17:02:05;10.05;;;2.00;;
22705;SDS011;11520;51.198;4.468;2023-03-14T17:04:39;10.40;;;1.55;;
22705;SDS011;11520;51.198;4.468;2023-03-14T17:07:11;8.65;;;2.40;;
22705;SDS011;11520;51.198;4.468;2023-03-14T17:09:37;14.30;;;2.70;;
22705;SDS011;11520;51.198;4.468;2023-03-14T17:12:03;14.63;;;2.20;;
22705;SDS011;11520;51.198;4.468;2023-03-14T17:14:30;11.32;;;1.95;;
22705;SDS011;11520;51.198;4.468;2023-03-14T17:16:56;10.65;;;1.80;;
22705;SDS011;11520;51.198;4.468;2023-03-14T17:19:23;8.77;;;1.67;;
22705;SDS011;11520;51.198;4.468;2023-03-14T17:21:49;6.47;;;1.80;;
22705;SDS011;11520;51.198;4.468;2023-03-14T17:24:15;8.48;;;1.35;;
22705;SDS011;11520;51.198;4.468;2023-03-14T17:26:41;9.25;;;2.13;;
22705;SDS011;11520;51.198;4.468;2023-03-14T17:29:08;11.55;;;2.05;;
22705;SDS011;11520;51.198;4.468;2023-03-14T17:31:36;7.13;;;1.73;;
22705;SDS011;11520;51.198;4.468;2023-03-14T17:34:05;13.07;;;2.03;;
22705;SDS011;11520;51.198;4.468;2023-03-14T17:36:31;7.00;;;1.55;;
22705;SDS011;11520;51.198;4.468;2023-03-14T17:38:58;13.60;;;1.98;;
22705;SDS011;11520;51.198;4.468;2023-03-14T17:41:27;13.18;;;1.98;;
22705;SDS011;11520;51.198;4.468;2023-03-14T17:43:56;14.60;;;2.45;;
22705;SDS011;11520;51.198;4.468;2023-03-14T17:46:24;9.68;;;1.70;;
22705;SDS011;11520;51.198;4.468;2023-03-14T17:48:54;13.02;;;2.20;;
22705;SDS011;11520;51.198;4.468;2023-03-14T17:51:19;13.25;;;2.60;;
22705;SDS011;11520;51.198;4.468;2023-03-14T17:53:45;14.90;;;2.03;;
22705;SDS011;11520;51.198;4.468;2023-03-14T17:56:13;11.98;;;1.85;;
22705;SDS011;11520;51.198;4.468;2023-03-14T17:58:40;11.30;;;2.50;;
22705;SDS011;11520;51.198;4.468;2023-03-14T18:01:15;11.20;;;2.35;;
22705;SDS011;11520;51.198;4.468;2023-03-14T18:03:43;7.95;;;1.95;;
22705;SDS011;11520;51.198;4.468;2023-03-14T18:06:12;12.60;;;2.50;;
22705;SDS011;11520;51.198;4.468;2023-03-14T18:08:39;10.27;;;2.33;;
22705;SDS011;11520;51.198;4.468;2023-03-14T18:11:09;11.55;;;3.28;;
22705;SDS011;11520;51.198;4.468;2023-03-14T18:13:35;15.02;;;2.88;;
22705;SDS011;11520;51.198;4.468;2023-03-14T18:16:03;7.60;;;1.95;;
22705;SDS011;11520;51.198;4.468;2023-03-14T18:18:29;12.10;;;2.60;;
22705;SDS011;11520;51.198;4.468;2023-03-14T18:20:55;9.68;;;1.95;;
22705;SDS011;11520;51.198;4.468;2023-03-14T18:23:21;11.93;;;2.05;;
22705;SDS011;11520;51.198;4.468;2023-03-14T18:25:48;7.90;;;1.92;;
22705;SDS011;11520;51.198;4.468;2023-03-14T18:28:15;11.57;;;2.58;;
22705;SDS011;11520;51.198;4.468;2023-03-14T18:30:42;11.60;;;2.20;;
22705;SDS011;11520;51.198;4.468;2023-03-14T18:33:14;7.30;;;1.30;;
22705;SDS011;11520;51.198;4.468;2023-03-14T18:38:08;12.15;;;2.17;;
22705;SDS011;11520;51.198;4.468;2023-03-14T18:40:34;10.52;;;2.40;;
22705;SDS011;11520;51.198;4.468;2023-03-14T18:43:00;5.60;;;1.67;;
22705;SDS011;11520;51.198;4.468;2023-03-14T18:45:26;12.50;;;2.35;;
22705;SDS011;11520;51.198;4.468;2023-03-14T18:47:52;13.43;;;2.70;;
22705;SDS011;11520;51.198;4.468;2023-03-14T18:50:18;9.95;;;1.92;;
22705;SDS011;11520;51.198;4.468;2023-03-14T18:52:43;7.10;;;1.48;;
22705;SDS011;11520;51.198;4.468;2023-03-14T18:55:09;10.05;;;2.63;;
22705;SDS011;11520;51.198;4.468;2023-03-14T18:57:35;11.15;;;2.22;;
22705;SDS011;11520;51.198;4.468;2023-03-14T19:00:01;11.95;;;2.85;;
22705;SDS011;11520;51.198;4.468;2023-03-14T19:02:30;17.45;;;3.03;;
22705;SDS011;11520;51.198;4.468;2023-03-14T19:04:58;8.77;;;2.10;;
22705;SDS011;11520;51.198;4.468;2023-03-14T19:10:47;10.82;;;2.20;;
22705;SDS011;11520;51.198;4.468;2023-03-14T19:13:18;16.02;;;1.77;;
22705;SDS011;11520;51.198;4.468;2023-03-14T19:15:44;6.35;;;2.33;;
22705;SDS011;11520;51.198;4.468;2023-03-14T19:18:10;10.68;;;2.63;;
22705;SDS011;11520;51.198;4.468;2023-03-14T19:20:37;9.02;;;2.55;;
22705;SDS011;11520;51.198;4.468;2023-03-14T19:23:03;17.02;;;2.60;;
22705;SDS011;11520;51.198;4.468;2023-03-14T19:25:29;5.57;;;2.08;;
22705;SDS011;11520;51.198;4.468;2023-03-14T19:27:57;7.20;;;1.90;;
22705;SDS011;11520;51.198;4.468;2023-03-14T19:30:22;9.85;;;2.50;;
22705;SDS011;11520;51.198;4.468;2023-03-14T19:32:48;12.35;;;2.78;;
22705;SDS011;11520;51.198;4.468;2023-03-14T19:35:15;11.10;;;2.88;;
22705;SDS011;11520;51.198;4.468;2023-03-14T19:37:41;10.40;;;2.28;;
22705;SDS011;11520;51.198;4.468;2023-03-14T19:40:07;7.57;;;2.25;;
22705;SDS011;11520;51.198;4.468;2023-03-14T19:42:34;12.88;;;2.80;;
22705;SDS011;11520;51.198;4.468;2023-03-14T19:45:00;7.68;;;2.03;;
22705;SDS011;11520;51.198;4.468;2023-03-14T19:47:27;8.52;;;2.83;;
22705;SDS011;11520;51.198;4.468;2023-03-14T19:49:53;9.43;;;2.67;;
22705;SDS011;11520;51.198;4.468;2023-03-14T19:52:19;12.10;;;3.72;;
22705;SDS011;11520;51.198;4.468;2023-03-14T19:54:45;9.73;;;3.75;;
22705;SDS011;11520;51.198;4.468;2023-03-14T19:57:12;13.95;;;4.00;;
22705;SDS011;11520;51.198;4.468;2023-03-14T19:59:38;20.35;;;5.35;;
22705;SDS011;11520;51.198;4.468;2023-03-14T20:02:08;12.43;;;5.00;;
22705;SDS011;11520;51.198;4.468;2023-03-14T20:04:40;13.40;;;5.82;;
22705;SDS011;11520;51.198;4.468;2023-03-14T20:07:08;21.00;;;7.00;;
22705;SDS011;11520;51.198;4.468;2023-03-14T20:09:36;13.98;;;5.10;;
22705;SDS011;11520;51.198;4.468;2023-03-14T20:12:05;10.98;;;3.60;;
22705;SDS011;11520;51.198;4.468;2023-03-14T20:14:31;12.20;;;3.15;;
22705;SDS011;11520;51.198;4.468;2023-03-14T20:16:57;12.75;;;4.18;;
22705;SDS011;11520;51.198;4.468;2023-03-14T20:19:23;11.65;;;3.15;;
22705;SDS011;11520;51.198;4.468;2023-03-14T20:21:49;7.70;;;3.40;;
22705;SDS011;11520;51.198;4.468;2023-03-14T20:24:15;15.38;;;3.65;;
22705;SDS011;11520;51.198;4.468;2023-03-14T20:26:42;13.57;;;3.80;;
22705;SDS011;11520;51.198;4.468;2023-03-14T20:29:09;11.25;;;3.75;;
22705;SDS011;11520;51.198;4.468;2023-03-14T20:31:37;11.38;;;3.83;;
22705;SDS011;11520;51.198;4.468;2023-03-14T20:36:46;16.77;;;5.25;;
22705;SDS011;11520;51.198;4.468;2023-03-14T20:39:19;19.23;;;5.80;;
22705;SDS011;11520;51.198;4.468;2023-03-14T20:41:48;14.52;;;5.35;;
22705;SDS011;11520;51.198;4.468;2023-03-14T20:44:13;24.58;;;5.93;;
22705;SDS011;11520;51.198;4.468;2023-03-14T20:46:45;14.27;;;4.38;;
22705;SDS011;11520;51.198;4.468;2023-03-14T20:49:11;13.77;;;4.45;;
22705;SDS011;11520;51.198;4.468;2023-03-14T20:51:36;14.80;;;4.80;;
22705;SDS011;11520;51.198;4.468;2023-03-14T20:54:02;16.63;;;4.53;;
22705;SDS011;11520;51.198;4.468;2023-03-14T20:56:28;18.05;;;5.10;;
22705;SDS011;11520;51.198;4.468;2023-03-14T20:58:53;12.93;;;4.68;;
22705;SDS011;11520;51.198;4.468;2023-03-14T21:04:41;15.90;;;4.40;;
22705;SDS011;11520;51.198;4.468;2023-03-14T21:07:07;14.13;;;6.13;;
22705;SDS011;11520;51.198;4.468;2023-03-14T21:09:33;21.35;;;5.82;;
22705;SDS011;11520;51.198;4.468;2023-03-14T21:11:58;17.80;;;5.20;;
22705;SDS011;11520;51.198;4.468;2023-03-14T21:14:26;18.05;;;5.60;;
22705;SDS011;11520;51.198;4.468;2023-03-14T21:16:52;15.32;;;5.38;;
22705;SDS011;11520;51.198;4.468;2023-03-14T21:19:22;18.63;;;5.20;;
22705;SDS011;11520;51.198;4.468;2023-03-14T21:22:01;24.60;;;5.72;;
22705;SDS011;11520;51.198;4.468;2023-03-14T21:24:31;15.73;;;4.78;;
22705;SDS011;11520;51.198;4.468;2023-03-14T21:26:58;13.88;;;4.80;;
22705;SDS011;11520;51.198;4.468;2023-03-14T21:29:24;15.80;;;4.72;;
22705;SDS011;11520;51.198;4.468;2023-03-14T21:31:50;12.52;;;4.90;;
22705;SDS011;11520;51.198;4.468;2023-03-14T21:34:17;8.50;;;4.00;;
22705;SDS011;11520;51.198;4.468;2023-03-14T21:36:45;16.00;;;4.88;;
22705;SDS011;11520;51.198;4.468;2023-03-14T21:39:12;13.40;;;3.80;;
22705;SDS011;11520;51.198;4.468;2023-03-14T21:41:39;14.02;;;4.13;;
22705;SDS011;11520;51.198;4.468;2023-03-14T21:44:05;11.00;;;3.83;;